sensor_id;sensor_type;location;lat;lon;timestamp;P1;durP1;ratioP1;P2;durP2;ratioP2
58597;SDS011;64549;46.910;16.844;2022-11-20T06:08:40;2.15;;;1.98;;
58597;SDS011;64549;46.910;16.844;2022-11-20T06:13:41;1.52;;;1.42;;
58597;SDS011;64549;46.910;16.844;2022-11-20T06:18:42;2.83;;;2.35;;
58597;SDS011;64549;46.910;16.844;2022-11-20T06:23:42;5.78;;;2.40;;
58597;SDS011;64549;46.910;16.844;2022-11-20T06:28:44;3.40;;;2.70;;
58597;SDS011;64549;46.910;16.844;2022-11-20T06:33:45;1.98;;;1.60;;
58597;SDS011;64549;46.910;16.844;2022-11-20T06:38:45;2.58;;;2.25;;
58597;SDS011;64549;46.910;16.844;2022-11-20T06:43:46;1.60;;;1.40;;
58597;SDS011;64549;46.910;16.844;2022-11-20T06:48:49;7.25;;;3.10;;
58597;SDS011;64549;46.910;16.844;2022-11-20T06:53:50;3.75;;;2.85;;
58597;SDS011;64549;46.910;16.844;2022-11-20T06:58:51;1.40;;;1.30;;
58597;SDS011;64549;46.910;16.844;2022-11-20T07:03:51;1.92;;;1.70;;
58597;SDS011;64549;46.910;16.844;2022-11-20T07:08:52;1.45;;;1.35;;
58597;SDS011;64549;46.910;16.844;2022-11-20T07:13:52;2.00;;;1.60;;
58597;SDS011;64549;46.910;16.844;2022-11-20T07:18:53;1.35;;;1.25;;
58597;SDS011;64549;46.910;16.844;2022-11-20T07:23:53;1.98;;;1.67;;
58597;SDS011;64549;46.910;16.844;2022-11-20T07:28:53;1.17;;;1.10;;
58597;SDS011;64549;46.910;16.844;2022-11-20T07:33:54;1.73;;;1.35;;
58597;SDS011;64549;46.910;16.844;2022-11-20T07:38:54;2.95;;;1.80;;
58597;SDS011;64549;46.910;16.844;2022-11-20T07:43:55;1.75;;;1.65;;
58597;SDS011;64549;46.910;16.844;2022-11-20T07:48:55;2.20;;;1.98;;
58597;SDS011;64549;46.910;16.844;2022-11-20T07:53:56;4.40;;;1.88;;
58597;SDS011;64549;46.910;16.844;2022-11-20T07:58:56;2.95;;;1.48;;
58597;SDS011;64549;46.910;16.844;2022-11-20T08:03:57;2.72;;;2.22;;
58597;SDS011;64549;46.910;16.844;2022-11-20T08:08:57;1.35;;;1.15;;
58597;SDS011;64549;46.910;16.844;2022-11-20T08:13:58;1.83;;;1.05;;
58597;SDS011;64549;46.910;16.844;2022-11-20T08:19:14;1.25;;;1.15;;
58597;SDS011;64549;46.910;16.844;2022-11-20T08:24:16;1.20;;;0.80;;
58597;SDS011;64549;46.910;16.844;2022-11-20T08:29:17;2.95;;;2.45;;
58597;SDS011;64549;46.910;16.844;2022-11-20T08:34:18;2.10;;;1.60;;
58597;SDS011;64549;46.910;16.844;2022-11-20T08:39:18;3.75;;;2.13;;
58597;SDS011;64549;46.910;16.844;2022-11-20T08:44:19;2.25;;;2.05;;
58597;SDS011;64549;46.910;16.844;2022-11-20T08:49:20;4.55;;;3.20;;
58597;SDS011;64549;46.910;16.844;2022-11-20T08:54:21;7.00;;;4.38;;
58597;SDS011;64549;46.910;16.844;2022-11-20T08:59:22;7.18;;;5.85;;
58597;SDS011;64549;46.910;16.844;2022-11-20T09:04:23;7.60;;;6.22;;
58597;SDS011;64549;46.910;16.844;2022-11-20T09:09:23;15.30;;;6.80;;
58597;SDS011;64549;46.910;16.844;2022-11-20T09:14:24;4.75;;;4.30;;
58597;SDS011;64549;46.910;16.844;2022-11-20T09:19:29;3.78;;;3.28;;
58597;SDS011;64549;46.910;16.844;2022-11-20T09:24:29;4.28;;;3.88;;
58597;SDS011;64549;46.910;16.844;2022-11-20T09:29:29;5.50;;;3.78;;
58597;SDS011;64549;46.910;16.844;2022-11-20T09:34:30;7.10;;;3.03;;
58597;SDS011;64549;46.910;16.844;2022-11-20T09:39:30;2.63;;;1.85;;
58597;SDS011;64549;46.910;16.844;2022-11-20T09:55:25;2.30;;;2.10;;
58597;SDS011;64549;46.910;16.844;2022-11-20T10:00:29;3.20;;;2.83;;
58597;SDS011;64549;46.910;16.844;2022-11-20T10:05:38;6.43;;;4.45;;
58597;SDS011;64549;46.910;16.844;2022-11-20T10:10:44;7.65;;;4.80;;
58597;SDS011;64549;46.910;16.844;2022-11-20T10:32:15;2.60;;;2.38;;
58597;SDS011;64549;46.910;16.844;2022-11-20T10:37:21;4.07;;;3.00;;
58597;SDS011;64549;46.910;16.844;2022-11-20T10:42:28;3.92;;;2.75;;
58597;SDS011;64549;46.910;16.844;2022-11-20T10:47:34;3.38;;;2.15;;
58597;SDS011;64549;46.910;16.844;2022-11-20T11:03:49;1.23;;;1.20;;
58597;SDS011;64549;46.910;16.844;2022-11-20T11:08:51;2.42;;;1.38;;
58597;SDS011;64549;46.910;16.844;2022-11-20T11:14:05;0.82;;;0.82;;
58597;SDS011;64549;46.910;16.844;2022-11-20T11:19:13;1.90;;;1.80;;
58597;SDS011;64549;46.910;16.844;2022-11-20T11:24:46;1.73;;;1.63;;
58597;SDS011;64549;46.910;16.844;2022-11-20T11:35:02;1.10;;;1.08;;
58597;SDS011;64549;46.910;16.844;2022-11-20T11:40:05;2.50;;;2.25;;
58597;SDS011;64549;46.910;16.844;2022-11-20T11:45:07;2.17;;;1.98;;
58597;SDS011;64549;46.910;16.844;2022-11-20T11:55:24;1.83;;;1.35;;
58597;SDS011;64549;46.910;16.844;2022-11-20T12:00:30;2.53;;;2.33;;
58597;SDS011;64549;46.910;16.844;2022-11-20T12:16:14;2.17;;;2.08;;
58597;SDS011;64549;46.910;16.844;2022-11-20T12:21:31;2.17;;;1.98;;
58597;SDS011;64549;46.910;16.844;2022-11-20T12:31:52;1.70;;;1.52;;
58597;SDS011;64549;46.910;16.844;2022-11-20T12:42:46;2.45;;;1.52;;
58597;SDS011;64549;46.910;16.844;2022-11-20T13:09:36;1.75;;;1.17;;
58597;SDS011;64549;46.910;16.844;2022-11-20T13:14:46;3.13;;;1.55;;
58597;SDS011;64549;46.910;16.844;2022-11-20T13:19:52;3.37;;;1.20;;
58597;SDS011;64549;46.910;16.844;2022-11-20T13:24:54;3.15;;;1.70;;
58597;SDS011;64549;46.910;16.844;2022-11-20T13:29:59;2.97;;;2.17;;
58597;SDS011;64549;46.910;16.844;2022-11-20T13:35:27;1.70;;;1.60;;
58597;SDS011;64549;46.910;16.844;2022-11-20T13:40:35;1.88;;;1.75;;
58597;SDS011;64549;46.910;16.844;2022-11-20T13:45:37;2.72;;;1.98;;
58597;SDS011;64549;46.910;16.844;2022-11-20T14:01:17;1.65;;;1.55;;
58597;SDS011;64549;46.910;16.844;2022-11-20T14:06:27;1.08;;;1.02;;
58597;SDS011;64549;46.910;16.844;2022-11-20T14:11:33;2.13;;;1.40;;
58597;SDS011;64549;46.910;16.844;2022-11-20T14:16:34;1.42;;;1.33;;
58597;SDS011;64549;46.910;16.844;2022-11-20T14:21:36;2.28;;;1.38;;
58597;SDS011;64549;46.910;16.844;2022-11-20T14:26:36;1.90;;;1.75;;
58597;SDS011;64549;46.910;16.844;2022-11-20T14:31:41;1.30;;;1.20;;
58597;SDS011;64549;46.910;16.844;2022-11-20T14:36:43;2.97;;;1.30;;
58597;SDS011;64549;46.910;16.844;2022-11-20T14:41:50;1.40;;;1.30;;
58597;SDS011;64549;46.910;16.844;2022-11-20T14:46:51;3.17;;;1.77;;
58597;SDS011;64549;46.910;16.844;2022-11-20T14:57:21;1.20;;;1.10;;
58597;SDS011;64549;46.910;16.844;2022-11-20T15:02:41;1.00;;;0.82;;
58597;SDS011;64549;46.910;16.844;2022-11-20T15:07:44;2.08;;;1.98;;
58597;SDS011;64549;46.910;16.844;2022-11-20T15:17:54;1.38;;;1.10;;
58597;SDS011;64549;46.910;16.844;2022-11-20T15:22:55;1.95;;;1.52;;
58597;SDS011;64549;46.910;16.844;2022-11-20T15:27:56;1.38;;;1.27;;
58597;SDS011;64549;46.910;16.844;2022-11-20T15:32:57;3.83;;;1.13;;
58597;SDS011;64549;46.910;16.844;2022-11-20T15:37:57;2.63;;;1.73;;
58597;SDS011;64549;46.910;16.844;2022-11-20T15:42:58;1.88;;;1.35;;
58597;SDS011;64549;46.910;16.844;2022-11-20T15:48:09;1.45;;;1.27;;
58597;SDS011;64549;46.910;16.844;2022-11-20T15:53:14;1.70;;;1.30;;
58597;SDS011;64549;46.910;16.844;2022-11-20T15:58:14;1.98;;;1.88;;
58597;SDS011;64549;46.910;16.844;2022-11-20T16:03:16;1.25;;;1.23;;
58597;SDS011;64549;46.910;16.844;2022-11-20T16:08:18;1.77;;;1.45;;
58597;SDS011;64549;46.910;16.844;2022-11-20T16:13:21;2.92;;;1.80;;
58597;SDS011;64549;46.910;16.844;2022-11-20T16:18:44;1.05;;;1.05;;
58597;SDS011;64549;46.910;16.844;2022-11-20T16:23:44;0.73;;;0.73;;
58597;SDS011;64549;46.910;16.844;2022-11-20T16:28:45;1.10;;;1.00;;
58597;SDS011;64549;46.910;16.844;2022-11-20T16:33:49;1.85;;;1.75;;
58597;SDS011;64549;46.910;16.844;2022-11-20T16:43:55;1.05;;;1.00;;
58597;SDS011;64549;46.910;16.844;2022-11-20T16:49:08;1.67;;;1.58;;
58597;SDS011;64549;46.910;16.844;2022-11-20T16:54:11;1.15;;;1.02;;
58597;SDS011;64549;46.910;16.844;2022-11-20T16:59:12;2.03;;;1.88;;
58597;SDS011;64549;46.910;16.844;2022-11-20T17:04:12;3.75;;;1.85;;
58597;SDS011;64549;46.910;16.844;2022-11-20T17:09:13;0.68;;;0.68;;
58597;SDS011;64549;46.910;16.844;2022-11-20T17:14:14;1.25;;;0.95;;
58597;SDS011;64549;46.910;16.844;2022-11-20T17:19:14;1.02;;;1.00;;
58597;SDS011;64549;46.910;16.844;2022-11-20T17:24:15;1.35;;;1.25;;
58597;SDS011;64549;46.910;16.844;2022-11-20T17:29:16;1.52;;;0.98;;
58597;SDS011;64549;46.910;16.844;2022-11-20T17:34:20;0.60;;;0.60;;
58597;SDS011;64549;46.910;16.844;2022-11-20T17:39:21;1.52;;;1.33;;
58597;SDS011;64549;46.910;16.844;2022-11-20T17:44:21;1.15;;;0.73;;
58597;SDS011;64549;46.910;16.844;2022-11-20T17:49:22;1.90;;;1.27;;
58597;SDS011;64549;46.910;16.844;2022-11-20T17:54:22;2.33;;;1.00;;
58597;SDS011;64549;46.910;16.844;2022-11-20T17:59:23;1.20;;;1.10;;
58597;SDS011;64549;46.910;16.844;2022-11-20T18:04:23;1.52;;;1.17;;
58597;SDS011;64549;46.910;16.844;2022-11-20T18:09:24;1.83;;;1.25;;
58597;SDS011;64549;46.910;16.844;2022-11-20T18:14:27;1.98;;;1.75;;
58597;SDS011;64549;46.910;16.844;2022-11-20T18:19:36;1.58;;;1.48;;
58597;SDS011;64549;46.910;16.844;2022-11-20T18:24:41;1.23;;;1.13;;
58597;SDS011;64549;46.910;16.844;2022-11-20T18:29:42;1.25;;;1.15;;
58597;SDS011;64549;46.910;16.844;2022-11-20T18:34:47;2.00;;;1.13;;
58597;SDS011;64549;46.910;16.844;2022-11-20T18:39:48;1.58;;;1.48;;
58597;SDS011;64549;46.910;16.844;2022-11-20T18:44:49;1.25;;;0.90;;
58597;SDS011;64549;46.910;16.844;2022-11-20T18:49:51;0.85;;;0.85;;
58597;SDS011;64549;46.910;16.844;2022-11-20T18:54:53;1.15;;;1.05;;
58597;SDS011;64549;46.910;16.844;2022-11-20T18:59:54;1.25;;;0.90;;
58597;SDS011;64549;46.910;16.844;2022-11-20T19:04:58;1.60;;;1.48;;
58597;SDS011;64549;46.910;16.844;2022-11-20T19:09:58;1.80;;;1.23;;
58597;SDS011;64549;46.910;16.844;2022-11-20T19:14:59;2.63;;;1.33;;
58597;SDS011;64549;46.910;16.844;2022-11-20T19:19:59;1.17;;;1.02;;
58597;SDS011;64549;46.910;16.844;2022-11-20T19:25:00;0.60;;;0.60;;
58597;SDS011;64549;46.910;16.844;2022-11-20T19:30:00;3.35;;;1.50;;
58597;SDS011;64549;46.910;16.844;2022-11-20T19:35:02;1.65;;;0.95;;
58597;SDS011;64549;46.910;16.844;2022-11-20T19:40:03;0.63;;;0.63;;
58597;SDS011;64549;46.910;16.844;2022-11-20T19:45:04;0.82;;;0.82;;
58597;SDS011;64549;46.910;16.844;2022-11-20T19:50:05;1.15;;;1.05;;
58597;SDS011;64549;46.910;16.844;2022-11-20T19:55:06;1.10;;;0.98;;
58597;SDS011;64549;46.910;16.844;2022-11-20T20:00:07;0.68;;;0.68;;
58597;SDS011;64549;46.910;16.844;2022-11-20T20:05:08;1.40;;;1.30;;
58597;SDS011;64549;46.910;16.844;2022-11-20T20:10:09;1.38;;;1.17;;
58597;SDS011;64549;46.910;16.844;2022-11-20T20:15:09;1.83;;;1.65;;
58597;SDS011;64549;46.910;16.844;2022-11-20T20:20:10;0.93;;;0.93;;
58597;SDS011;64549;46.910;16.844;2022-11-20T20:25:10;1.33;;;1.23;;
58597;SDS011;64549;46.910;16.844;2022-11-20T20:30:11;0.82;;;0.82;;
58597;SDS011;64549;46.910;16.844;2022-11-20T20:35:12;1.88;;;1.05;;
58597;SDS011;64549;46.910;16.844;2022-11-20T20:40:12;1.13;;;0.90;;
58597;SDS011;64549;46.910;16.844;2022-11-20T20:45:13;1.58;;;1.48;;
58597;SDS011;64549;46.910;16.844;2022-11-20T20:50:13;1.40;;;1.25;;
58597;SDS011;64549;46.910;16.844;2022-11-20T20:55:14;1.75;;;1.65;;
58597;SDS011;64549;46.910;16.844;2022-11-20T21:00:14;1.95;;;1.60;;
58597;SDS011;64549;46.910;16.844;2022-11-20T21:05:15;1.55;;;1.23;;
58597;SDS011;64549;46.910;16.844;2022-11-20T21:10:16;0.98;;;0.98;;
58597;SDS011;64549;46.910;16.844;2022-11-20T21:15:16;2.17;;;1.85;;
58597;SDS011;64549;46.910;16.844;2022-11-20T21:20:16;4.13;;;1.75;;
58597;SDS011;64549;46.910;16.844;2022-11-20T21:25:36;0.93;;;0.75;;
58597;SDS011;64549;46.910;16.844;2022-11-20T21:30:37;1.25;;;1.15;;
58597;SDS011;64549;46.910;16.844;2022-11-20T21:35:38;1.33;;;0.95;;
58597;SDS011;64549;46.910;16.844;2022-11-20T21:40:38;1.50;;;1.13;;
58597;SDS011;64549;46.910;16.844;2022-11-20T21:45:39;2.47;;;0.70;;
58597;SDS011;64549;46.910;16.844;2022-11-20T21:50:39;0.82;;;0.82;;
58597;SDS011;64549;46.910;16.844;2022-11-20T21:55:39;1.52;;;1.23;;
58597;SDS011;64549;46.910;16.844;2022-11-20T22:00:40;1.05;;;1.02;;
58597;SDS011;64549;46.910;16.844;2022-11-20T22:05:40;0.63;;;0.63;;
58597;SDS011;64549;46.910;16.844;2022-11-20T22:10:41;1.13;;;1.08;;
58597;SDS011;64549;46.910;16.844;2022-11-20T22:15:44;1.98;;;1.10;;
58597;SDS011;64549;46.910;16.844;2022-11-20T22:20:45;1.45;;;1.08;;
58597;SDS011;64549;46.910;16.844;2022-11-20T22:25:45;1.13;;;0.98;;
58597;SDS011;64549;46.910;16.844;2022-11-20T22:30:45;1.15;;;1.13;;
58597;SDS011;64549;46.910;16.844;2022-11-20T22:35:46;0.93;;;0.88;;
58597;SDS011;64549;46.910;16.844;2022-11-20T22:40:46;0.80;;;0.80;;
58597;SDS011;64549;46.910;16.844;2022-11-20T22:45:47;0.88;;;0.88;;
58597;SDS011;64549;46.910;16.844;2022-11-20T22:50:47;1.70;;;1.48;;
58597;SDS011;64549;46.910;16.844;2022-11-20T22:55:48;0.95;;;0.95;;
58597;SDS011;64549;46.910;16.844;2022-11-20T23:00:48;0.75;;;0.75;;
58597;SDS011;64549;46.910;16.844;2022-11-20T23:05:49;4.30;;;1.10;;
58597;SDS011;64549;46.910;16.844;2022-11-20T23:10:51;0.70;;;0.70;;
58597;SDS011;64549;46.910;16.844;2022-11-20T23:21:08;0.77;;;0.77;;
58597;SDS011;64549;46.910;16.844;2022-11-20T23:26:11;1.73;;;1.10;;
58597;SDS011;64549;46.910;16.844;2022-11-20T23:31:13;1.05;;;0.88;;
58597;SDS011;64549;46.910;16.844;2022-11-20T23:36:15;1.05;;;0.98;;
58597;SDS011;64549;46.910;16.844;2022-11-20T23:41:16;0.68;;;0.68;;
58597;SDS011;64549;46.910;16.844;2022-11-20T23:46:17;0.43;;;0.43;;
58597;SDS011;64549;46.910;16.844;2022-11-20T23:51:17;0.55;;;0.55;;
58597;SDS011;64549;46.910;16.844;2022-11-20T23:56:17;0.77;;;0.70;;
